sensor_id;sensor_type;location;lat;lon;timestamp;temperature;humidity
7004;DHT22;3542;48.812;9.146;2023-05-07T00:00:45;12.40;99.90
7004;DHT22;3542;48.812;9.146;2023-05-07T00:03:10;12.30;99.90
7004;DHT22;3542;48.812;9.146;2023-05-07T00:05:36;12.40;99.90
7004;DHT22;3542;48.812;9.146;2023-05-07T00:08:03;12.40;99.90
7004;DHT22;3542;48.812;9.146;2023-05-07T00:10:28;12.30;99.90
7004;DHT22;3542;48.812;9.146;2023-05-07T00:12:54;12.30;99.90
7004;DHT22;3542;48.812;9.146;2023-05-07T00:15:20;12.30;99.90
7004;DHT22;3542;48.812;9.146;2023-05-07T00:17:45;12.30;99.90
7004;DHT22;3542;48.812;9.146;2023-05-07T00:20:11;12.30;99.90
7004;DHT22;3542;48.812;9.146;2023-05-07T00:22:37;12.30;99.90
7004;DHT22;3542;48.812;9.146;2023-05-07T00:25:03;12.20;99.90
7004;DHT22;3542;48.812;9.146;2023-05-07T00:27:28;12.20;99.90
7004;DHT22;3542;48.812;9.146;2023-05-07T00:29:54;12.20;99.90
7004;DHT22;3542;48.812;9.146;2023-05-07T00:32:19;12.20;99.90
7004;DHT22;3542;48.812;9.146;2023-05-07T00:34:45;12.10;99.90
7004;DHT22;3542;48.812;9.146;2023-05-07T00:37:11;12.20;99.90
7004;DHT22;3542;48.812;9.146;2023-05-07T00:39:37;12.20;99.90
7004;DHT22;3542;48.812;9.146;2023-05-07T00:42:02;12.20;99.90
7004;DHT22;3542;48.812;9.146;2023-05-07T00:44:28;12.20;99.90
7004;DHT22;3542;48.812;9.146;2023-05-07T00:46:57;12.10;99.90
7004;DHT22;3542;48.812;9.146;2023-05-07T00:49:37;12.10;99.90
7004;DHT22;3542;48.812;9.146;2023-05-07T00:52:03;12.10;99.90
7004;DHT22;3542;48.812;9.146;2023-05-07T00:54:29;12.00;99.90
7004;DHT22;3542;48.812;9.146;2023-05-07T00:56:55;12.00;99.90
7004;DHT22;3542;48.812;9.146;2023-05-07T00:59:21;12.00;99.90
7004;DHT22;3542;48.812;9.146;2023-05-07T02:32:24;11.60;99.90
7004;DHT22;3542;48.812;9.146;2023-05-07T02:34:50;11.60;99.90
7004;DHT22;3542;48.812;9.146;2023-05-07T02:37:20;11.50;99.90
7004;DHT22;3542;48.812;9.146;2023-05-07T02:39:46;11.50;99.90
7004;DHT22;3542;48.812;9.146;2023-05-07T02:42:12;11.50;99.90
7004;DHT22;3542;48.812;9.146;2023-05-07T02:44:38;11.50;99.90
7004;DHT22;3542;48.812;9.146;2023-05-07T02:47:04;11.50;99.90
7004;DHT22;3542;48.812;9.146;2023-05-07T02:49:30;11.40;99.90
7004;DHT22;3542;48.812;9.146;2023-05-07T02:51:56;11.40;99.90
7004;DHT22;3542;48.812;9.146;2023-05-07T02:54:21;11.40;99.90
7004;DHT22;3542;48.812;9.146;2023-05-07T02:56:47;11.30;99.90
7004;DHT22;3542;48.812;9.146;2023-05-07T02:59:13;11.30;99.90
7004;DHT22;3542;48.812;9.146;2023-05-07T03:01:39;11.20;99.90
7004;DHT22;3542;48.812;9.146;2023-05-07T03:04:05;11.20;99.90
7004;DHT22;3542;48.812;9.146;2023-05-07T03:06:31;11.20;99.90
7004;DHT22;3542;48.812;9.146;2023-05-07T03:08:56;11.10;99.90
7004;DHT22;3542;48.812;9.146;2023-05-07T03:11:22;11.10;99.90
7004;DHT22;3542;48.812;9.146;2023-05-07T03:13:47;11.10;99.90
7004;DHT22;3542;48.812;9.146;2023-05-07T03:16:15;11.10;99.90
7004;DHT22;3542;48.812;9.146;2023-05-07T03:18:41;11.00;99.90
7004;DHT22;3542;48.812;9.146;2023-05-07T03:21:06;11.00;99.90
7004;DHT22;3542;48.812;9.146;2023-05-07T03:23:32;10.90;99.90
7004;DHT22;3542;48.812;9.146;2023-05-07T03:25:57;10.90;99.90
7004;DHT22;3542;48.812;9.146;2023-05-07T03:28:23;10.90;99.90
7004;DHT22;3542;48.812;9.146;2023-05-07T03:30:48;10.90;99.90
7004;DHT22;3542;48.812;9.146;2023-05-07T03:33:14;10.80;99.90
7004;DHT22;3542;48.812;9.146;2023-05-07T03:35:39;10.80;99.90
7004;DHT22;3542;48.812;9.146;2023-05-07T03:38:05;10.80;99.90
7004;DHT22;3542;48.812;9.146;2023-05-07T03:40:30;10.70;99.90
7004;DHT22;3542;48.812;9.146;2023-05-07T03:42:56;10.70;99.90
7004;DHT22;3542;48.812;9.146;2023-05-07T03:45:21;10.70;99.90
7004;DHT22;3542;48.812;9.146;2023-05-07T03:47:47;10.70;99.90
7004;DHT22;3542;48.812;9.146;2023-05-07T03:50:12;10.60;99.90
7004;DHT22;3542;48.812;9.146;2023-05-07T03:52:38;10.60;99.90
7004;DHT22;3542;48.812;9.146;2023-05-07T03:55:04;10.60;99.90
7004;DHT22;3542;48.812;9.146;2023-05-07T03:57:29;10.60;99.90
7004;DHT22;3542;48.812;9.146;2023-05-07T03:59:55;10.60;99.90
7004;DHT22;3542;48.812;9.146;2023-05-07T04:02:20;10.60;99.90
7004;DHT22;3542;48.812;9.146;2023-05-07T04:04:48;10.60;99.90
7004;DHT22;3542;48.812;9.146;2023-05-07T04:07:14;10.60;99.90
7004;DHT22;3542;48.812;9.146;2023-05-07T04:09:40;10.60;99.90
7004;DHT22;3542;48.812;9.146;2023-05-07T04:12:05;10.50;99.90
7004;DHT22;3542;48.812;9.146;2023-05-07T04:14:31;10.60;99.90
7004;DHT22;3542;48.812;9.146;2023-05-07T04:16:58;10.50;99.90
7004;DHT22;3542;48.812;9.146;2023-05-07T04:19:24;10.60;99.90
7004;DHT22;3542;48.812;9.146;2023-05-07T04:21:49;10.60;99.90
7004;DHT22;3542;48.812;9.146;2023-05-07T04:24:15;10.70;99.90
7004;DHT22;3542;48.812;9.146;2023-05-07T04:26:41;10.70;99.90
7004;DHT22;3542;48.812;9.146;2023-05-07T04:29:06;10.70;99.90
7004;DHT22;3542;48.812;9.146;2023-05-07T04:31:32;10.80;99.90
7004;DHT22;3542;48.812;9.146;2023-05-07T04:33:57;10.80;99.90
7004;DHT22;3542;48.812;9.146;2023-05-07T04:36:23;10.80;99.90
7004;DHT22;3542;48.812;9.146;2023-05-07T04:38:53;10.80;99.90
7004;DHT22;3542;48.812;9.146;2023-05-07T04:41:19;10.90;99.90
7004;DHT22;3542;48.812;9.146;2023-05-07T04:43:44;11.00;99.90
7004;DHT22;3542;48.812;9.146;2023-05-07T04:46:10;11.00;99.90
7004;DHT22;3542;48.812;9.146;2023-05-07T04:48:36;11.10;99.90
7004;DHT22;3542;48.812;9.146;2023-05-07T04:51:02;11.20;99.90
7004;DHT22;3542;48.812;9.146;2023-05-07T04:53:27;11.20;99.90
7004;DHT22;3542;48.812;9.146;2023-05-07T04:55:56;11.30;99.90
7004;DHT22;3542;48.812;9.146;2023-05-07T04:58:22;11.30;99.90
7004;DHT22;3542;48.812;9.146;2023-05-07T05:00:48;11.30;99.90
7004;DHT22;3542;48.812;9.146;2023-05-07T05:03:13;11.30;99.90
7004;DHT22;3542;48.812;9.146;2023-05-07T05:05:39;11.30;99.90
7004;DHT22;3542;48.812;9.146;2023-05-07T05:08:05;11.30;99.90
7004;DHT22;3542;48.812;9.146;2023-05-07T05:10:30;11.30;99.90
7004;DHT22;3542;48.812;9.146;2023-05-07T05:12:56;11.40;99.90
7004;DHT22;3542;48.812;9.146;2023-05-07T05:15:21;11.40;99.90
7004;DHT22;3542;48.812;9.146;2023-05-07T05:17:47;11.60;99.90
7004;DHT22;3542;48.812;9.146;2023-05-07T05:20:12;11.70;99.90
7004;DHT22;3542;48.812;9.146;2023-05-07T05:22:38;11.80;99.90
7004;DHT22;3542;48.812;9.146;2023-05-07T05:25:04;11.90;99.90
7004;DHT22;3542;48.812;9.146;2023-05-07T05:27:30;11.90;99.90
7004;DHT22;3542;48.812;9.146;2023-05-07T05:29:55;12.10;99.90
7004;DHT22;3542;48.812;9.146;2023-05-07T05:32:21;12.20;99.90
7004;DHT22;3542;48.812;9.146;2023-05-07T05:34:47;13.20;99.90
7004;DHT22;3542;48.812;9.146;2023-05-07T05:37:12;14.60;99.90
7004;DHT22;3542;48.812;9.146;2023-05-07T05:39:38;15.50;99.90
7004;DHT22;3542;48.812;9.146;2023-05-07T05:42:03;16.20;99.90
7004;DHT22;3542;48.812;9.146;2023-05-07T05:44:29;16.40;99.90
7004;DHT22;3542;48.812;9.146;2023-05-07T05:46:54;16.40;99.90
7004;DHT22;3542;48.812;9.146;2023-05-07T05:49:21;17.20;99.90
7004;DHT22;3542;48.812;9.146;2023-05-07T05:51:47;17.90;99.90
7004;DHT22;3542;48.812;9.146;2023-05-07T05:54:12;17.70;99.90
7004;DHT22;3542;48.812;9.146;2023-05-07T05:56:38;17.20;99.90
7004;DHT22;3542;48.812;9.146;2023-05-07T05:59:03;16.60;99.90
7004;DHT22;3542;48.812;9.146;2023-05-07T06:01:29;16.00;99.90
7004;DHT22;3542;48.812;9.146;2023-05-07T06:03:55;15.90;99.90
7004;DHT22;3542;48.812;9.146;2023-05-07T06:06:21;16.10;99.90
7004;DHT22;3542;48.812;9.146;2023-05-07T06:08:46;16.10;99.90
7004;DHT22;3542;48.812;9.146;2023-05-07T06:11:12;16.20;99.90
7004;DHT22;3542;48.812;9.146;2023-05-07T06:13:37;16.60;99.90
7004;DHT22;3542;48.812;9.146;2023-05-07T06:16:03;16.80;99.90
7004;DHT22;3542;48.812;9.146;2023-05-07T06:18:28;16.90;99.90
7004;DHT22;3542;48.812;9.146;2023-05-07T06:20:54;16.80;99.90
7004;DHT22;3542;48.812;9.146;2023-05-07T06:23:20;16.80;99.90
7004;DHT22;3542;48.812;9.146;2023-05-07T06:25:49;16.70;99.90
7004;DHT22;3542;48.812;9.146;2023-05-07T06:28:18;16.80;99.90
7004;DHT22;3542;48.812;9.146;2023-05-07T06:30:43;16.90;99.90
7004;DHT22;3542;48.812;9.146;2023-05-07T06:33:09;17.20;99.90
7004;DHT22;3542;48.812;9.146;2023-05-07T06:35:34;17.30;99.90
7004;DHT22;3542;48.812;9.146;2023-05-07T06:38:00;17.50;99.90
7004;DHT22;3542;48.812;9.146;2023-05-07T06:40:26;17.80;99.90
7004;DHT22;3542;48.812;9.146;2023-05-07T06:42:52;18.00;99.90
7004;DHT22;3542;48.812;9.146;2023-05-07T06:45:17;18.50;99.90
7004;DHT22;3542;48.812;9.146;2023-05-07T06:47:43;18.90;99.90
7004;DHT22;3542;48.812;9.146;2023-05-07T06:50:08;19.20;99.90
7004;DHT22;3542;48.812;9.146;2023-05-07T06:52:35;19.80;99.90
7004;DHT22;3542;48.812;9.146;2023-05-07T06:55:01;20.20;99.90
7004;DHT22;3542;48.812;9.146;2023-05-07T06:57:26;20.50;99.90
7004;DHT22;3542;48.812;9.146;2023-05-07T06:59:52;20.80;99.90
7004;DHT22;3542;48.812;9.146;2023-05-07T07:02:17;20.80;99.90
7004;DHT22;3542;48.812;9.146;2023-05-07T07:04:43;20.90;99.90
7004;DHT22;3542;48.812;9.146;2023-05-07T07:07:10;21.10;99.90
7004;DHT22;3542;48.812;9.146;2023-05-07T07:09:35;21.40;99.90
7004;DHT22;3542;48.812;9.146;2023-05-07T07:12:01;21.70;99.90
7004;DHT22;3542;48.812;9.146;2023-05-07T07:14:26;21.90;99.90
7004;DHT22;3542;48.812;9.146;2023-05-07T07:16:52;21.90;99.90
7004;DHT22;3542;48.812;9.146;2023-05-07T07:19:17;22.10;99.90
7004;DHT22;3542;48.812;9.146;2023-05-07T07:21:43;22.30;99.90
7004;DHT22;3542;48.812;9.146;2023-05-07T07:24:10;22.50;99.90
7004;DHT22;3542;48.812;9.146;2023-05-07T07:26:35;23.00;99.90
7004;DHT22;3542;48.812;9.146;2023-05-07T07:29:01;23.20;99.90
7004;DHT22;3542;48.812;9.146;2023-05-07T07:31:26;23.40;99.90
7004;DHT22;3542;48.812;9.146;2023-05-07T07:33:52;23.50;99.90
7004;DHT22;3542;48.812;9.146;2023-05-07T07:36:17;23.60;99.90
7004;DHT22;3542;48.812;9.146;2023-05-07T07:38:43;23.40;99.90
7004;DHT22;3542;48.812;9.146;2023-05-07T07:41:08;23.50;99.90
7004;DHT22;3542;48.812;9.146;2023-05-07T07:43:34;23.70;99.90
7004;DHT22;3542;48.812;9.146;2023-05-07T07:46:01;24.00;99.90
7004;DHT22;3542;48.812;9.146;2023-05-07T07:48:26;24.30;99.90
7004;DHT22;3542;48.812;9.146;2023-05-07T07:50:52;24.30;99.90
7004;DHT22;3542;48.812;9.146;2023-05-07T07:53:18;24.00;99.90
7004;DHT22;3542;48.812;9.146;2023-05-07T07:55:43;23.30;99.90
7004;DHT22;3542;48.812;9.146;2023-05-07T07:58:09;23.20;99.90
7004;DHT22;3542;48.812;9.146;2023-05-07T08:00:34;23.10;99.90
7004;DHT22;3542;48.812;9.146;2023-05-07T08:03:00;23.10;99.90
7004;DHT22;3542;48.812;9.146;2023-05-07T08:05:26;23.30;99.90
7004;DHT22;3542;48.812;9.146;2023-05-07T08:07:51;23.00;99.90
7004;DHT22;3542;48.812;9.146;2023-05-07T08:10:18;22.90;99.90
7004;DHT22;3542;48.812;9.146;2023-05-07T08:12:51;23.00;99.90
7004;DHT22;3542;48.812;9.146;2023-05-07T08:15:16;23.10;99.90
7004;DHT22;3542;48.812;9.146;2023-05-07T08:17:43;23.10;99.90
7004;DHT22;3542;48.812;9.146;2023-05-07T08:20:09;23.40;99.90
7004;DHT22;3542;48.812;9.146;2023-05-07T08:22:35;23.30;99.90
7004;DHT22;3542;48.812;9.146;2023-05-07T08:25:01;23.50;99.90
7004;DHT22;3542;48.812;9.146;2023-05-07T08:27:27;23.90;99.90
7004;DHT22;3542;48.812;9.146;2023-05-07T08:29:53;24.00;99.90
7004;DHT22;3542;48.812;9.146;2023-05-07T08:32:19;24.10;99.90
7004;DHT22;3542;48.812;9.146;2023-05-07T08:34:44;24.10;99.90
7004;DHT22;3542;48.812;9.146;2023-05-07T08:37:10;23.80;99.90
7004;DHT22;3542;48.812;9.146;2023-05-07T08:39:35;23.80;99.90
7004;DHT22;3542;48.812;9.146;2023-05-07T08:42:01;23.70;99.90
7004;DHT22;3542;48.812;9.146;2023-05-07T08:44:33;23.70;99.90
7004;DHT22;3542;48.812;9.146;2023-05-07T08:47:01;24.30;99.90
7004;DHT22;3542;48.812;9.146;2023-05-07T08:49:28;25.10;99.90
7004;DHT22;3542;48.812;9.146;2023-05-07T08:51:54;26.10;99.90
7004;DHT22;3542;48.812;9.146;2023-05-07T08:54:21;26.60;99.90
7004;DHT22;3542;48.812;9.146;2023-05-07T08:56:47;27.10;99.90
7004;DHT22;3542;48.812;9.146;2023-05-07T08:59:13;27.30;99.90
7004;DHT22;3542;48.812;9.146;2023-05-07T09:01:39;27.60;99.90
7004;DHT22;3542;48.812;9.146;2023-05-07T09:04:05;28.10;99.90
7004;DHT22;3542;48.812;9.146;2023-05-07T09:06:32;28.40;99.90
7004;DHT22;3542;48.812;9.146;2023-05-07T09:08:58;28.30;99.90
7004;DHT22;3542;48.812;9.146;2023-05-07T09:11:26;28.80;99.90
7004;DHT22;3542;48.812;9.146;2023-05-07T09:13:54;28.70;99.90
7004;DHT22;3542;48.812;9.146;2023-05-07T09:16:21;28.70;99.90
7004;DHT22;3542;48.812;9.146;2023-05-07T09:18:51;29.10;99.90
7004;DHT22;3542;48.812;9.146;2023-05-07T09:21:18;28.70;99.90
7004;DHT22;3542;48.812;9.146;2023-05-07T09:23:43;29.10;99.90
7004;DHT22;3542;48.812;9.146;2023-05-07T09:26:09;28.90;99.90
7004;DHT22;3542;48.812;9.146;2023-05-07T09:28:40;28.90;99.90
7004;DHT22;3542;48.812;9.146;2023-05-07T09:31:10;29.10;99.90
7004;DHT22;3542;48.812;9.146;2023-05-07T09:33:37;28.70;99.90
7004;DHT22;3542;48.812;9.146;2023-05-07T09:36:03;28.50;99.90
7004;DHT22;3542;48.812;9.146;2023-05-07T09:38:30;28.70;99.90
7004;DHT22;3542;48.812;9.146;2023-05-07T09:41:07;28.80;99.90
7004;DHT22;3542;48.812;9.146;2023-05-07T09:43:35;28.90;99.90
7004;DHT22;3542;48.812;9.146;2023-05-07T09:46:09;28.80;99.90
7004;DHT22;3542;48.812;9.146;2023-05-07T09:48:40;29.00;99.90
7004;DHT22;3542;48.812;9.146;2023-05-07T09:51:25;29.10;99.90
7004;DHT22;3542;48.812;9.146;2023-05-07T09:53:54;29.60;99.90
7004;DHT22;3542;48.812;9.146;2023-05-07T09:56:19;29.80;99.90
7004;DHT22;3542;48.812;9.146;2023-05-07T09:58:46;30.10;99.90
7004;DHT22;3542;48.812;9.146;2023-05-07T10:01:12;30.00;99.90
7004;DHT22;3542;48.812;9.146;2023-05-07T10:03:40;30.30;99.90
7004;DHT22;3542;48.812;9.146;2023-05-07T10:06:09;30.40;99.90
7004;DHT22;3542;48.812;9.146;2023-05-07T10:08:35;30.20;99.90
7004;DHT22;3542;48.812;9.146;2023-05-07T10:11:02;29.80;99.90
7004;DHT22;3542;48.812;9.146;2023-05-07T10:13:28;29.20;99.90
7004;DHT22;3542;48.812;9.146;2023-05-07T10:15:55;28.90;99.90
7004;DHT22;3542;48.812;9.146;2023-05-07T10:18:22;29.00;99.90
7004;DHT22;3542;48.812;9.146;2023-05-07T10:20:49;28.90;99.90
7004;DHT22;3542;48.812;9.146;2023-05-07T10:23:19;29.20;99.90
7004;DHT22;3542;48.812;9.146;2023-05-07T10:25:47;28.70;99.90
7004;DHT22;3542;48.812;9.146;2023-05-07T10:28:14;28.90;99.90
7004;DHT22;3542;48.812;9.146;2023-05-07T10:33:27;28.50;99.90
7004;DHT22;3542;48.812;9.146;2023-05-07T10:35:58;28.60;99.90
7004;DHT22;3542;48.812;9.146;2023-05-07T10:38:25;28.60;99.90
7004;DHT22;3542;48.812;9.146;2023-05-07T10:40:51;28.80;99.90
7004;DHT22;3542;48.812;9.146;2023-05-07T10:43:16;28.40;99.90
7004;DHT22;3542;48.812;9.146;2023-05-07T10:45:42;28.10;99.90
7004;DHT22;3542;48.812;9.146;2023-05-07T10:48:12;27.50;99.90
7004;DHT22;3542;48.812;9.146;2023-05-07T10:50:40;27.10;99.90
7004;DHT22;3542;48.812;9.146;2023-05-07T10:53:21;26.70;99.90
7004;DHT22;3542;48.812;9.146;2023-05-07T10:55:48;26.70;99.90
7004;DHT22;3542;48.812;9.146;2023-05-07T10:58:25;26.50;99.90
7004;DHT22;3542;48.812;9.146;2023-05-07T11:00:59;26.90;99.90
7004;DHT22;3542;48.812;9.146;2023-05-07T11:03:25;26.70;99.90
7004;DHT22;3542;48.812;9.146;2023-05-07T11:08:55;26.50;99.90
7004;DHT22;3542;48.812;9.146;2023-05-07T11:11:47;26.50;99.90
7004;DHT22;3542;48.812;9.146;2023-05-07T11:14:14;26.50;99.90
7004;DHT22;3542;48.812;9.146;2023-05-07T11:17:03;26.50;99.90
7004;DHT22;3542;48.812;9.146;2023-05-07T11:19:54;26.20;99.90
7004;DHT22;3542;48.812;9.146;2023-05-07T11:25:05;26.10;99.90
7004;DHT22;3542;48.812;9.146;2023-05-07T11:27:32;26.00;99.90
7004;DHT22;3542;48.812;9.146;2023-05-07T11:29:58;25.90;99.90
7004;DHT22;3542;48.812;9.146;2023-05-07T11:32:24;25.70;99.90
7004;DHT22;3542;48.812;9.146;2023-05-07T11:34:54;25.60;99.90
7004;DHT22;3542;48.812;9.146;2023-05-07T11:37:21;25.30;99.90
7004;DHT22;3542;48.812;9.146;2023-05-07T11:39:46;25.20;99.90
7004;DHT22;3542;48.812;9.146;2023-05-07T11:42:32;25.30;99.90
7004;DHT22;3542;48.812;9.146;2023-05-07T11:44:58;25.10;99.90
7004;DHT22;3542;48.812;9.146;2023-05-07T11:47:24;24.90;99.90
7004;DHT22;3542;48.812;9.146;2023-05-07T11:49:52;24.80;99.90
7004;DHT22;3542;48.812;9.146;2023-05-07T11:52:20;24.50;99.90
7004;DHT22;3542;48.812;9.146;2023-05-07T11:54:53;24.30;99.90
7004;DHT22;3542;48.812;9.146;2023-05-07T11:57:20;24.30;99.90
7004;DHT22;3542;48.812;9.146;2023-05-07T11:59:45;24.20;99.90
7004;DHT22;3542;48.812;9.146;2023-05-07T12:02:14;24.00;99.90
7004;DHT22;3542;48.812;9.146;2023-05-07T12:04:40;24.00;99.90
7004;DHT22;3542;48.812;9.146;2023-05-07T12:07:14;23.90;99.90
7004;DHT22;3542;48.812;9.146;2023-05-07T12:09:43;23.80;99.90
7004;DHT22;3542;48.812;9.146;2023-05-07T12:12:09;23.70;99.90
7004;DHT22;3542;48.812;9.146;2023-05-07T12:14:38;23.60;99.90
7004;DHT22;3542;48.812;9.146;2023-05-07T12:17:05;23.40;99.90
7004;DHT22;3542;48.812;9.146;2023-05-07T12:19:31;23.20;99.90
7004;DHT22;3542;48.812;9.146;2023-05-07T12:21:57;22.80;99.90
7004;DHT22;3542;48.812;9.146;2023-05-07T12:24:22;22.60;99.90
7004;DHT22;3542;48.812;9.146;2023-05-07T12:26:48;22.30;99.90
7004;DHT22;3542;48.812;9.146;2023-05-07T12:29:14;22.10;99.90
7004;DHT22;3542;48.812;9.146;2023-05-07T12:31:43;21.80;99.90
7004;DHT22;3542;48.812;9.146;2023-05-07T12:34:11;21.40;99.90
7004;DHT22;3542;48.812;9.146;2023-05-07T12:36:38;21.00;99.90
7004;DHT22;3542;48.812;9.146;2023-05-07T12:39:05;20.60;99.90
7004;DHT22;3542;48.812;9.146;2023-05-07T12:41:36;20.30;99.90
7004;DHT22;3542;48.812;9.146;2023-05-07T12:44:17;20.00;99.90
7004;DHT22;3542;48.812;9.146;2023-05-07T12:46:42;19.70;99.90
7004;DHT22;3542;48.812;9.146;2023-05-07T12:49:08;19.50;99.90
7004;DHT22;3542;48.812;9.146;2023-05-07T12:51:35;19.30;99.90
7004;DHT22;3542;48.812;9.146;2023-05-07T12:54:00;19.10;99.90
7004;DHT22;3542;48.812;9.146;2023-05-07T12:56:26;19.00;99.90
7004;DHT22;3542;48.812;9.146;2023-05-07T12:58:51;18.70;99.90
7004;DHT22;3542;48.812;9.146;2023-05-07T13:01:22;18.50;99.90
7004;DHT22;3542;48.812;9.146;2023-05-07T13:03:49;18.10;99.90
7004;DHT22;3542;48.812;9.146;2023-05-07T13:06:17;17.70;99.90
7004;DHT22;3542;48.812;9.146;2023-05-07T13:08:43;17.50;99.90
7004;DHT22;3542;48.812;9.146;2023-05-07T13:11:09;17.40;99.90
7004;DHT22;3542;48.812;9.146;2023-05-07T13:13:37;17.20;99.90
7004;DHT22;3542;48.812;9.146;2023-05-07T13:16:03;16.90;99.90
7004;DHT22;3542;48.812;9.146;2023-05-07T13:18:30;16.80;99.90
7004;DHT22;3542;48.812;9.146;2023-05-07T13:20:56;16.60;99.90
7004;DHT22;3542;48.812;9.146;2023-05-07T13:23:22;16.60;99.90
7004;DHT22;3542;48.812;9.146;2023-05-07T13:25:48;16.40;99.90
7004;DHT22;3542;48.812;9.146;2023-05-07T13:28:14;16.30;99.90
7004;DHT22;3542;48.812;9.146;2023-05-07T13:30:40;16.20;99.90
7004;DHT22;3542;48.812;9.146;2023-05-07T13:33:09;16.10;99.90
7004;DHT22;3542;48.812;9.146;2023-05-07T13:35:34;15.90;99.90
7004;DHT22;3542;48.812;9.146;2023-05-07T13:38:00;15.90;99.90
7004;DHT22;3542;48.812;9.146;2023-05-07T13:40:26;15.80;99.90
7004;DHT22;3542;48.812;9.146;2023-05-07T13:42:51;15.80;99.90
7004;DHT22;3542;48.812;9.146;2023-05-07T13:45:20;15.80;99.90
7004;DHT22;3542;48.812;9.146;2023-05-07T13:47:46;15.80;99.90
7004;DHT22;3542;48.812;9.146;2023-05-07T13:50:12;15.80;99.90
7004;DHT22;3542;48.812;9.146;2023-05-07T13:52:42;15.80;99.90
7004;DHT22;3542;48.812;9.146;2023-05-07T13:55:09;15.90;99.90
7004;DHT22;3542;48.812;9.146;2023-05-07T13:57:36;15.90;99.90
7004;DHT22;3542;48.812;9.146;2023-05-07T14:00:03;15.90;99.90
7004;DHT22;3542;48.812;9.146;2023-05-07T14:02:30;15.90;99.90
7004;DHT22;3542;48.812;9.146;2023-05-07T14:04:56;15.90;99.90
7004;DHT22;3542;48.812;9.146;2023-05-07T14:07:22;15.90;99.90
7004;DHT22;3542;48.812;9.146;2023-05-07T14:09:54;15.90;99.90
7004;DHT22;3542;48.812;9.146;2023-05-07T14:12:20;15.90;99.90
7004;DHT22;3542;48.812;9.146;2023-05-07T14:14:46;15.90;99.90
7004;DHT22;3542;48.812;9.146;2023-05-07T14:17:12;16.00;99.90
7004;DHT22;3542;48.812;9.146;2023-05-07T14:19:38;16.00;99.90
7004;DHT22;3542;48.812;9.146;2023-05-07T14:22:04;16.00;99.90
7004;DHT22;3542;48.812;9.146;2023-05-07T14:24:30;16.00;99.90
7004;DHT22;3542;48.812;9.146;2023-05-07T14:26:56;16.00;99.90
7004;DHT22;3542;48.812;9.146;2023-05-07T14:29:22;16.00;99.90
7004;DHT22;3542;48.812;9.146;2023-05-07T14:34:36;15.90;99.90
7004;DHT22;3542;48.812;9.146;2023-05-07T14:37:02;15.90;99.90
7004;DHT22;3542;48.812;9.146;2023-05-07T14:39:35;15.90;99.90
7004;DHT22;3542;48.812;9.146;2023-05-07T14:42:01;15.90;99.90
7004;DHT22;3542;48.812;9.146;2023-05-07T14:44:27;15.90;99.90
7004;DHT22;3542;48.812;9.146;2023-05-07T14:46:53;15.90;99.90
7004;DHT22;3542;48.812;9.146;2023-05-07T14:49:19;15.90;99.90
7004;DHT22;3542;48.812;9.146;2023-05-07T14:51:46;15.90;99.90
7004;DHT22;3542;48.812;9.146;2023-05-07T14:54:12;15.90;99.90
7004;DHT22;3542;48.812;9.146;2023-05-07T14:56:39;15.90;99.90
7004;DHT22;3542;48.812;9.146;2023-05-07T14:59:05;15.90;99.90
7004;DHT22;3542;48.812;9.146;2023-05-07T15:01:32;15.90;99.90
7004;DHT22;3542;48.812;9.146;2023-05-07T15:03:59;15.90;99.90
7004;DHT22;3542;48.812;9.146;2023-05-07T15:06:25;16.00;99.90
7004;DHT22;3542;48.812;9.146;2023-05-07T15:08:52;16.00;99.90
7004;DHT22;3542;48.812;9.146;2023-05-07T15:11:18;16.10;99.90
7004;DHT22;3542;48.812;9.146;2023-05-07T15:13:44;16.10;99.90
7004;DHT22;3542;48.812;9.146;2023-05-07T15:16:10;16.20;99.90
7004;DHT22;3542;48.812;9.146;2023-05-07T15:18:35;16.30;99.90
7004;DHT22;3542;48.812;9.146;2023-05-07T15:21:01;16.30;99.90
7004;DHT22;3542;48.812;9.146;2023-05-07T15:23:27;16.30;99.90
7004;DHT22;3542;48.812;9.146;2023-05-07T15:25:53;16.30;99.90
7004;DHT22;3542;48.812;9.146;2023-05-07T15:28:19;16.40;99.90
7004;DHT22;3542;48.812;9.146;2023-05-07T15:30:45;16.40;99.90
7004;DHT22;3542;48.812;9.146;2023-05-07T15:33:11;16.50;99.90
7004;DHT22;3542;48.812;9.146;2023-05-07T15:35:37;16.60;99.90
7004;DHT22;3542;48.812;9.146;2023-05-07T15:38:03;16.60;99.90
7004;DHT22;3542;48.812;9.146;2023-05-07T15:40:30;16.70;99.90
7004;DHT22;3542;48.812;9.146;2023-05-07T15:42:56;16.70;99.90
7004;DHT22;3542;48.812;9.146;2023-05-07T15:45:23;16.80;99.90
7004;DHT22;3542;48.812;9.146;2023-05-07T15:47:49;16.80;99.90
7004;DHT22;3542;48.812;9.146;2023-05-07T15:50:15;16.80;99.90
7004;DHT22;3542;48.812;9.146;2023-05-07T15:52:41;16.90;99.90
7004;DHT22;3542;48.812;9.146;2023-05-07T15:55:07;16.90;99.90
7004;DHT22;3542;48.812;9.146;2023-05-07T15:57:34;17.00;99.90
7004;DHT22;3542;48.812;9.146;2023-05-07T16:00:01;17.00;99.90
7004;DHT22;3542;48.812;9.146;2023-05-07T16:02:28;17.00;99.90
7004;DHT22;3542;48.812;9.146;2023-05-07T16:04:54;17.00;99.90
7004;DHT22;3542;48.812;9.146;2023-05-07T16:07:20;17.00;99.90
7004;DHT22;3542;48.812;9.146;2023-05-07T16:09:47;17.00;99.90
7004;DHT22;3542;48.812;9.146;2023-05-07T16:12:12;16.90;99.90
7004;DHT22;3542;48.812;9.146;2023-05-07T16:14:38;16.90;99.90
7004;DHT22;3542;48.812;9.146;2023-05-07T16:17:04;16.90;99.90
7004;DHT22;3542;48.812;9.146;2023-05-07T16:19:30;16.90;99.90
7004;DHT22;3542;48.812;9.146;2023-05-07T16:21:56;16.80;99.90
7004;DHT22;3542;48.812;9.146;2023-05-07T16:24:22;16.90;99.90
7004;DHT22;3542;48.812;9.146;2023-05-07T16:26:48;16.80;99.90
7004;DHT22;3542;48.812;9.146;2023-05-07T16:29:14;16.90;99.90
7004;DHT22;3542;48.812;9.146;2023-05-07T16:31:40;16.90;99.90
7004;DHT22;3542;48.812;9.146;2023-05-07T16:34:06;16.90;99.90
7004;DHT22;3542;48.812;9.146;2023-05-07T16:36:32;16.90;99.90
7004;DHT22;3542;48.812;9.146;2023-05-07T16:38:58;16.90;99.90
7004;DHT22;3542;48.812;9.146;2023-05-07T16:41:23;16.90;99.90
7004;DHT22;3542;48.812;9.146;2023-05-07T16:43:49;16.90;99.90
7004;DHT22;3542;48.812;9.146;2023-05-07T16:46:15;16.90;99.90
7004;DHT22;3542;48.812;9.146;2023-05-07T16:48:41;16.90;99.90
7004;DHT22;3542;48.812;9.146;2023-05-07T16:51:07;16.90;99.90
7004;DHT22;3542;48.812;9.146;2023-05-07T16:53:32;16.90;99.90
7004;DHT22;3542;48.812;9.146;2023-05-07T16:56:03;16.80;99.90
7004;DHT22;3542;48.812;9.146;2023-05-07T16:58:29;16.90;99.90
7004;DHT22;3542;48.812;9.146;2023-05-07T17:00:54;16.80;99.90
7004;DHT22;3542;48.812;9.146;2023-05-07T17:03:20;16.80;99.90
7004;DHT22;3542;48.812;9.146;2023-05-07T17:05:46;16.90;99.90
7004;DHT22;3542;48.812;9.146;2023-05-07T17:08:11;16.90;99.90
7004;DHT22;3542;48.812;9.146;2023-05-07T17:10:37;16.90;99.90
7004;DHT22;3542;48.812;9.146;2023-05-07T17:13:03;16.90;99.90
7004;DHT22;3542;48.812;9.146;2023-05-07T17:15:28;16.90;99.90
7004;DHT22;3542;48.812;9.146;2023-05-07T17:17:54;16.80;99.90
7004;DHT22;3542;48.812;9.146;2023-05-07T17:20:20;16.80;99.90
7004;DHT22;3542;48.812;9.146;2023-05-07T17:22:45;16.90;99.90
7004;DHT22;3542;48.812;9.146;2023-05-07T17:25:11;16.80;99.90
7004;DHT22;3542;48.812;9.146;2023-05-07T17:27:37;16.80;99.90
7004;DHT22;3542;48.812;9.146;2023-05-07T17:30:02;16.80;99.90
7004;DHT22;3542;48.812;9.146;2023-05-07T17:32:28;16.80;99.90
7004;DHT22;3542;48.812;9.146;2023-05-07T17:34:55;16.80;99.90
7004;DHT22;3542;48.812;9.146;2023-05-07T17:37:21;16.70;99.90
7004;DHT22;3542;48.812;9.146;2023-05-07T17:39:47;16.70;99.90